EGLC METAR and TAF | Updated Today

EGLC METAR

London City Airport

Observation time: 28 min. ago

EGLC 251850Z AUTO 25015KT 9999 NCD 17/10 Q1014

Need help? Read our tutorial on how to read METARs or read the parsed version below.

London City Airport (EGLC) METAR

  • Weather conditions on Wed, 25 May 2022 18:50:00 +0000 (28 min. ago):
  • Present conditions: Dry
  • Clouds: Nil cloud detected
  • Visibility: Greater than 10 km
  • Wind: 250 degrees at 15 knots
  • Temperature: 17 celsius
  • Dew point: 10 celsius
  • Pressure: 1014 millibars
  • Remarks: None


Useful to know...

EGLC TAF

London City Airport

TAF EGLC 251655Z 2518/2521 27011KT 9999 SCT045
Observation time: 2:23 hr. ago
Need help? Read our tutorial on how to read TAFs or read the parsed version below.

Parsed version of TAF for London City Airport (EGLC)

  • From 25 May at 18:00 UTC, to day 25 of the month at 21:00 UTC
  • Clouds: Scattered at 1372 meters
  • Visibility: Greater than 10 km
  • Wind: 270 degrees at 11